Time;durP1;ratioP1;P1;durP2;ratioP2;P2;SDS_P1;SDS_P2;PMS_P1;PMS_P2;Temp;Humidity;BMP_temperature;BMP_pressure;BME280_temperature;BME280_humidity;BME280_pressure;Samples;Min_cycle;Max_cycle;Signal;HPM_P1;HPM_P2
2024/01/12 00:02:15;;;;;;;34.87;20.10;;;;;;;-0.84;100.00;97702.91;5123751;27;20298;-58
2024/01/12 00:04:42;;;;;;;36.40;20.63;;;;;;;-0.81;100.00;97713.19;5121300;27;20298;-59
2024/01/12 00:07:09;;;;;;;37.83;22.40;;;;;;;-0.80;100.00;97705.38;5086114;28;20229;-57
2024/01/12 00:09:36;;;;;;;40.43;21.37;;;;;;;-0.91;100.00;97717.84;5085763;28;20201;-58
2024/01/12 00:12:03;;;;;;;34.07;20.43;;;;;;;-0.88;100.00;97727.28;5085732;28;20216;-59
2024/01/12 00:14:30;;;;;;;39.70;22.73;;;;;;;-0.89;100.00;97725.59;5084191;28;20225;-58
2024/01/12 00:16:57;;;;;;;37.00;22.23;;;;;;;-0.85;100.00;97711.63;5085842;28;20260;-57
2024/01/12 00:19:23;;;;;;;38.93;23.13;;;;;;;-0.79;100.00;97716.63;5085877;28;20214;-57
2024/01/12 00:21:49;;;;;;;36.30;21.80;;;;;;;-0.88;100.00;97707.34;5085356;28;20211;-56
2024/01/12 00:24:16;;;;;;;40.93;23.40;;;;;;;-0.74;100.00;97717.31;5085931;28;20507;-57
2024/01/12 00:26:44;;;;;;;41.40;24.13;;;;;;;-0.74;100.00;97722.50;5085087;28;20566;-58
2024/01/12 00:29:10;;;;;;;43.50;25.07;;;;;;;-0.73;100.00;97732.00;5084076;28;20201;-57
2024/01/12 00:31:37;;;;;;;43.13;24.67;;;;;;;-0.65;100.00;97727.44;5085136;28;20212;-58
2024/01/12 00:34:04;;;;;;;45.63;26.63;;;;;;;-0.65;100.00;97719.63;5085141;28;20210;-59
2024/01/12 00:36:30;;;;;;;43.50;25.20;;;;;;;-0.73;100.00;97724.22;5085536;28;20289;-59
2024/01/12 00:38:57;;;;;;;41.40;24.80;;;;;;;-0.85;100.00;97722.00;5084482;28;20244;-58
2024/01/12 00:41:24;;;;;;;44.67;25.13;;;;;;;-0.84;100.00;97716.75;5084237;28;20512;-57
2024/01/12 00:43:52;;;;;;;42.90;24.33;;;;;;;-0.83;100.00;97715.00;5084061;28;20300;-59
2024/01/12 00:46:18;;;;;;;43.60;25.20;;;;;;;-0.89;100.00;97715.22;5085261;28;20256;-58
2024/01/12 00:48:45;;;;;;;42.03;24.07;;;;;;;-0.86;100.00;97715.13;5084595;28;20241;-57
2024/01/12 00:51:12;;;;;;;41.30;24.30;;;;;;;-0.95;100.00;97734.41;5064730;28;20208;-58
2024/01/12 00:53:38;;;;;;;47.87;25.77;;;;;;;-0.93;100.00;97723.97;5085932;28;20208;-58
2024/01/12 00:56:05;;;;;;;43.47;25.37;;;;;;;-0.92;100.00;97715.31;5084277;28;20291;-58
2024/01/12 00:58:33;;;;;;;44.47;25.97;;;;;;;-0.89;100.00;97715.22;5084422;28;20223;-57
2024/01/12 01:01:01;;;;;;;46.13;25.40;;;;;;;-0.87;100.00;97721.19;5083427;28;20208;-59
2024/01/12 01:03:28;;;;;;;43.30;24.93;;;;;;;-0.87;100.00;97716.00;5084868;28;20218;-57
2024/01/12 01:05:55;;;;;;;42.33;24.77;;;;;;;-0.93;100.00;97713.59;5091587;28;20338;-56
2024/01/12 01:08:21;;;;;;;45.53;25.23;;;;;;;-0.88;100.00;97716.88;5102166;28;20511;-59
2024/01/12 01:10:48;;;;;;;40.10;25.10;;;;;;;-0.94;100.00;97719.69;5101326;28;20578;-59
2024/01/12 01:13:15;;;;;;;41.07;25.47;;;;;;;-0.88;100.00;97714.28;5101706;28;20535;-57
2024/01/12 01:15:41;;;;;;;40.63;24.57;;;;;;;-0.97;100.00;97717.19;5100739;28;21377;-59
2024/01/12 01:18:10;;;;;;;43.33;25.30;;;;;;;-0.97;100.00;97712.00;5100634;28;20208;-57
2024/01/12 01:20:37;;;;;;;42.43;24.47;;;;;;;-0.98;100.00;97715.47;5102020;28;21025;-58
2024/01/12 01:23:04;;;;;;;42.87;24.93;;;;;;;-0.98;100.00;97720.66;5097335;28;20212;-58
2024/01/12 01:25:30;;;;;;;43.20;25.20;;;;;;;-1.02;100.00;97715.56;5097549;28;20215;-59
2024/01/12 01:27:57;;;;;;;45.60;25.93;;;;;;;-0.99;100.00;97716.41;5102097;28;20199;-58
2024/01/12 01:30:24;;;;;;;42.67;24.50;;;;;;;-0.95;100.00;97723.16;5100291;28;20219;-57
2024/01/12 01:32:50;;;;;;;40.17;24.23;;;;;;;-0.92;100.00;97730.88;5100838;28;20206;-57
2024/01/12 01:35:19;;;;;;;42.03;25.03;;;;;;;-0.94;100.00;97735.25;5099626;28;20213;-58
2024/01/12 01:37:46;;;;;;;42.83;25.27;;;;;;;-0.90;100.00;97739.47;5101742;28;20282;-57
2024/01/12 01:40:13;;;;;;;45.70;26.23;;;;;;;-0.89;100.00;97741.19;5101564;28;20221;-57
2024/01/12 01:42:40;;;;;;;45.13;25.93;;;;;;;-0.91;100.00;97742.94;5099636;28;20200;-58
2024/01/12 01:45:07;;;;;;;49.57;27.07;;;;;;;-0.89;100.00;97742.03;5100343;28;20532;-57
2024/01/12 01:47:34;;;;;;;43.27;25.03;;;;;;;-0.91;100.00;97742.94;5100913;28;21013;-59
2024/01/12 01:50:01;;;;;;;42.13;24.60;;;;;;;-0.88;100.00;97735.91;5098408;28;20199;-59
2024/01/12 01:52:29;;;;;;;44.40;25.17;;;;;;;-0.99;100.00;97739.75;5097995;28;20204;-58
2024/01/12 01:54:58;;;;;;;42.73;24.37;;;;;;;-1.05;100.00;97752.00;5100954;28;20236;-58
2024/01/12 01:57:27;;;;;;;45.93;26.43;;;;;;;-1.08;100.00;97746.91;5106212;28;20253;-59
2024/01/12 01:59:54;;;;;;;46.27;25.17;;;;;;;-0.97;100.00;97748.34;5134886;28;20204;-58
2024/01/12 02:02:22;;;;;;;43.13;25.90;;;;;;;-0.94;100.00;97750.84;5127846;28;20231;-60
2024/01/12 02:04:51;;;;;;;47.30;26.80;;;;;;;-1.05;100.00;97754.59;5121434;28;21107;-60
2024/01/12 02:07:18;;;;;;;49.43;27.47;;;;;;;-1.08;100.00;97752.09;5095205;28;20248;-58
2024/01/12 02:09:46;;;;;;;47.73;27.03;;;;;;;-1.11;100.00;97754.78;5088330;28;20295;-58
2024/01/12 02:12:13;;;;;;;43.53;25.60;;;;;;;-1.18;100.00;97761.06;5075033;28;20206;-59
2024/01/12 02:14:40;;;;;;;45.93;26.10;;;;;;;-1.16;100.00;97761.84;5088007;28;20205;-58
2024/01/12 02:17:07;;;;;;;40.00;23.63;;;;;;;-1.08;100.00;97757.28;5083104;28;20199;-59
2024/01/12 02:19:36;;;;;;;44.10;25.50;;;;;;;-1.14;100.00;97756.63;5084090;28;20209;-57
2024/01/12 02:22:05;;;;;;;43.17;26.20;;;;;;;-1.14;100.00;97752.28;5082919;28;20228;-56
2024/01/12 02:24:32;;;;;;;44.00;25.37;;;;;;;-1.09;100.00;97750.41;5082882;28;20213;-59
2024/01/12 02:26:59;;;;;;;51.13;26.60;;;;;;;-1.12;100.00;97745.31;5082478;28;20242;-56
2024/01/12 02:29:25;;;;;;;48.30;26.97;;;;;;;-1.01;100.00;97748.44;5082212;28;20205;-57
2024/01/12 02:31:52;;;;;;;43.10;25.30;;;;;;;-1.07;100.00;97747.78;5083253;28;20204;-56
2024/01/12 02:34:19;;;;;;;43.57;24.60;;;;;;;-1.05;100.00;97746.81;5082592;28;20201;-57
2024/01/12 02:36:46;;;;;;;43.13;25.33;;;;;;;-1.02;100.00;97744.13;5082925;28;20190;-59
2024/01/12 02:39:13;;;;;;;43.60;26.07;;;;;;;-1.16;100.00;97746.28;5082288;28;20212;-59
2024/01/12 02:41:40;;;;;;;46.20;25.93;;;;;;;-1.27;100.00;97756.13;5082617;28;20276;-57
2024/01/12 02:44:09;;;;;;;46.93;25.57;;;;;;;-1.16;100.00;97759.25;5082241;28;20207;-58
2024/01/12 02:46:35;;;;;;;47.30;26.23;;;;;;;-1.10;100.00;97758.25;5082851;28;20223;-56
2024/01/12 02:49:03;;;;;;;49.63;26.27;;;;;;;-1.13;100.00;97753.97;5082329;28;20299;-57
2024/01/12 02:51:29;;;;;;;45.90;25.37;;;;;;;-1.11;100.00;97754.78;5082651;28;20210;-57
2024/01/12 02:53:57;;;;;;;45.53;25.63;;;;;;;-1.12;100.00;97750.50;5082883;28;20238;-58
2024/01/12 02:56:25;;;;;;;48.37;26.20;;;;;;;-1.13;100.00;97751.38;5082356;28;20212;-58
2024/01/12 02:58:53;;;;;;;40.30;24.43;;;;;;;-1.27;100.00;97761.31;5082292;28;20212;-57
2024/01/12 03:01:20;;;;;;;40.57;23.43;;;;;;;-1.30;100.00;97763.16;5067036;28;20201;-58
2024/01/12 03:03:46;;;;;;;35.97;21.40;;;;;;;-1.31;100.00;97757.09;5085822;28;20258;-57
2024/01/12 03:06:15;;;;;;;37.30;21.40;;;;;;;-1.17;100.00;97749.75;5093384;28;20323;-57
2024/01/12 03:08:42;;;;;;;37.33;22.13;;;;;;;-1.24;100.00;97744.81;5100359;28;20220;-57
2024/01/12 03:11:08;;;;;;;42.63;23.97;;;;;;;-1.34;100.00;97745.97;5074463;28;20358;-58
2024/01/12 03:13:36;;;;;;;38.83;22.80;;;;;;;-1.27;100.00;97739.69;5099296;28;20217;-58
2024/01/12 03:16:04;;;;;;;39.73;22.20;;;;;;;-1.16;100.00;97738.50;5099601;28;20210;-57
2024/01/12 03:18:31;;;;;;;45.63;23.60;;;;;;;-1.15;100.00;97739.34;5097847;28;20198;-58
2024/01/12 03:20:58;;;;;;;35.53;21.63;;;;;;;-1.07;100.00;97735.66;5101589;28;20208;-58
2024/01/12 03:23:26;;;;;;;43.60;24.23;;;;;;;-1.13;100.00;97738.41;5102644;28;20602;-57
2024/01/12 03:25:53;;;;;;;38.10;22.83;;;;;;;-1.13;100.00;97741.00;5104337;28;20210;-57
2024/01/12 03:28:19;;;;;;;43.00;24.77;;;;;;;-1.22;100.00;97737.81;5102419;28;20220;-57
2024/01/12 03:30:47;;;;;;;47.80;25.50;;;;;;;-1.21;100.00;97735.19;5098695;28;20218;-56
2024/01/12 03:33:14;;;;;;;41.80;24.27;;;;;;;-1.16;100.00;97746.28;5099259;28;20206;-57
2024/01/12 03:35:41;;;;;;;42.80;24.63;;;;;;;-1.18;100.00;97745.50;5099901;28;20544;-58
2024/01/12 03:38:08;;;;;;;43.93;24.97;;;;;;;-1.17;100.00;97743.75;5098890;28;20204;-56
2024/01/12 03:40:34;;;;;;;46.00;24.67;;;;;;;-1.21;100.00;97743.00;5099623;28;20202;-57
2024/01/12 03:43:01;;;;;;;43.50;24.37;;;;;;;-1.15;100.00;97749.72;5100277;28;20228;-58
2024/01/12 03:45:28;;;;;;;40.77;24.67;;;;;;;-1.17;100.00;97747.16;5099631;28;20335;-58
2024/01/12 03:47:55;;;;;;;40.97;24.00;;;;;;;-1.18;100.00;97755.88;5099172;28;20234;-59
2024/01/12 03:50:23;;;;;;;43.87;24.20;;;;;;;-1.20;100.00;97752.44;5097939;28;20393;-58
2024/01/12 03:52:51;;;;;;;42.10;22.77;;;;;;;-1.10;100.00;97743.50;5097323;28;20839;-58
2024/01/12 03:55:18;;;;;;;43.67;24.53;;;;;;;-1.21;100.00;97745.59;5098806;28;20207;-57
2024/01/12 03:57:44;;;;;;;44.90;24.73;;;;;;;-1.21;100.00;97745.59;5099660;28;20211;-58
2024/01/12 04:00:12;;;;;;;42.60;23.37;;;;;;;-1.18;100.00;97744.63;5098974;28;20295;-57
2024/01/12 04:02:39;;;;;;;44.17;25.23;;;;;;;-1.19;100.00;97733.41;5099478;28;20204;-56
2024/01/12 04:05:09;;;;;;;45.67;24.03;;;;;;;-1.28;100.00;97728.50;5098907;28;20231;-57
2024/01/12 04:07:38;;;;;;;45.97;25.43;;;;;;;-1.19;100.00;97727.34;5085847;28;20680;-58
2024/01/12 04:10:07;;;;;;;48.83;25.80;;;;;;;-1.22;100.00;97730.91;5106144;28;20214;-59
2024/01/12 04:12:35;;;;;;;44.73;23.97;;;;;;;-1.20;100.00;97731.69;5115571;28;20199;-58
2024/01/12 04:15:02;;;;;;;48.97;26.23;;;;;;;-1.27;100.00;97724.97;5118983;28;20200;-60
2024/01/12 04:17:28;;;;;;;48.83;26.07;;;;;;;-1.28;100.00;97723.31;5112377;28;20291;-57
2024/01/12 04:19:55;;;;;;;41.27;23.20;;;;;;;-1.30;100.00;97722.47;5100712;28;20299;-58
2024/01/12 04:22:23;;;;;;;42.50;24.30;;;;;;;-1.25;100.00;97718.03;5099315;28;20290;-58
2024/01/12 04:24:50;;;;;;;43.37;24.43;;;;;;;-1.19;100.00;97732.53;5093242;28;20268;-58
2024/01/12 04:27:17;;;;;;;43.43;24.33;;;;;;;-1.14;100.00;97731.53;5094252;28;20241;-59
2024/01/12 04:29:43;;;;;;;42.70;24.07;;;;;;;-1.12;100.00;97734.91;5094431;28;20234;-57
2024/01/12 04:32:10;;;;;;;44.83;25.53;;;;;;;-1.18;100.00;97736.84;5094862;28;20234;-58
2024/01/12 04:34:37;;;;;;;46.57;24.20;;;;;;;-1.19;100.00;97746.38;5094812;28;20206;-59
2024/01/12 04:37:04;;;;;;;44.07;23.83;;;;;;;-1.21;100.00;97744.72;5092417;28;20204;-58
2024/01/12 04:39:32;;;;;;;44.43;23.87;;;;;;;-1.25;100.00;97749.16;5100839;28;20232;-59
2024/01/12 04:41:58;;;;;;;44.30;24.30;;;;;;;-1.26;100.00;97747.44;5103031;28;20208;-58
2024/01/12 04:44:25;;;;;;;45.57;24.53;;;;;;;-1.27;100.00;97747.47;5102658;28;20208;-59
2024/01/12 04:46:52;;;;;;;43.60;24.60;;;;;;;-1.40;100.00;97749.59;5102772;28;20267;-57
2024/01/12 04:49:18;;;;;;;45.60;25.00;;;;;;;-1.30;100.00;97743.25;5102384;28;20263;-60
2024/01/12 04:51:45;;;;;;;43.33;24.30;;;;;;;-1.37;100.00;97746.91;5102212;28;20633;-56
2024/01/12 04:54:12;;;;;;;42.27;23.73;;;;;;;-1.26;100.00;97751.78;5101593;28;20655;-58
2024/01/12 04:56:40;;;;;;;48.13;26.40;;;;;;;-1.23;100.00;97754.28;5102107;28;20210;-59
2024/01/12 04:59:07;;;;;;;49.97;28.47;;;;;;;-1.25;100.00;97756.94;5100756;28;20207;-59
2024/01/12 05:01:34;;;;;;;53.27;30.17;;;;;;;-1.25;100.00;97749.16;5121375;28;20191;-61
2024/01/12 05:04:01;;;;;;;52.37;31.13;;;;;;;-1.24;100.00;97753.44;5123985;28;20235;-59
2024/01/12 05:06:27;;;;;;;49.73;28.17;;;;;;;-1.27;100.00;97750.94;5109747;28;20336;-62
2024/01/12 05:08:54;;;;;;;49.53;29.17;;;;;;;-1.33;100.00;97756.31;5106321;28;20288;-58
2024/01/12 05:11:22;;;;;;;51.73;29.00;;;;;;;-1.32;100.00;97751.97;5106642;28;20218;-59
2024/01/12 05:13:52;;;;;;;55.10;29.97;;;;;;;-1.28;100.00;97753.59;5107457;28;20219;-60
2024/01/12 05:16:18;;;;;;;54.63;29.50;;;;;;;-1.41;100.00;97752.22;5088175;28;20231;-59
2024/01/12 05:18:45;;;;;;;52.10;29.27;;;;;;;-1.48;100.00;97751.53;5084966;28;20581;-57
2024/01/12 05:21:12;;;;;;;52.80;30.37;;;;;;;-1.53;100.00;97753.44;5084925;28;20596;-59
2024/01/12 05:23:39;;;;;;;51.93;30.20;;;;;;;-1.57;100.00;97751.81;5084749;28;20206;-58
2024/01/12 05:26:06;;;;;;;53.00;30.53;;;;;;;-1.56;100.00;97745.75;5088709;28;20700;-59
2024/01/12 05:28:33;;;;;;;53.27;31.07;;;;;;;-1.61;100.00;97742.41;5087177;28;20227;-57
2024/01/12 05:31:01;;;;;;;48.10;29.43;;;;;;;-1.53;100.00;97740.47;5092852;28;20278;-58
2024/01/12 05:33:28;;;;;;;53.53;29.80;;;;;;;-1.52;100.00;97739.53;5098631;28;20318;-59
2024/01/12 05:35:54;;;;;;;52.67;28.20;;;;;;;-1.48;100.00;97740.31;5095314;28;20275;-59
2024/01/12 05:38:21;;;;;;;53.60;29.63;;;;;;;-1.44;100.00;97750.56;5086248;28;20622;-57
2024/01/12 05:40:48;;;;;;;56.47;29.87;;;;;;;-1.51;100.00;97744.69;5094598;28;20498;-59
2024/01/12 05:43:17;;;;;;;50.23;26.63;;;;;;;-1.43;100.00;97741.91;5085687;28;20212;-58
2024/01/12 05:45:44;;;;;;;55.40;28.90;;;;;;;-1.43;100.00;97748.81;5084365;28;20656;-58
2024/01/12 05:48:14;;;;;;;48.93;29.13;;;;;;;-1.28;100.00;97748.41;5084648;28;20230;-57
2024/01/12 05:50:41;;;;;;;48.40;28.00;;;;;;;-1.30;100.00;97755.34;5083080;28;20295;-57
2024/01/12 05:53:08;;;;;;;50.10;27.67;;;;;;;-1.26;100.00;97751.78;5083571;28;20655;-58
2024/01/12 05:55:35;;;;;;;51.27;27.00;;;;;;;-1.25;100.00;97748.31;5083212;28;20196;-57
2024/01/12 05:58:01;;;;;;;54.03;28.47;;;;;;;-1.32;100.00;97752.81;5083058;28;20193;-57
2024/01/12 06:00:28;;;;;;;51.53;29.27;;;;;;;-1.30;100.00;97748.44;5083564;28;20302;-58
2024/01/12 06:02:54;;;;;;;49.63;27.17;;;;;;;-1.32;100.00;97752.81;5083813;28;20208;-57
2024/01/12 06:05:22;;;;;;;53.23;29.03;;;;;;;-1.27;100.00;97748.34;5079348;28;20227;-59
2024/01/12 06:07:49;;;;;;;51.00;27.90;;;;;;;-1.41;100.00;97754.81;5101363;28;20305;-57
2024/01/12 06:10:17;;;;;;;53.33;28.50;;;;;;;-1.40;100.00;97756.53;5101084;28;20197;-56
2024/01/12 06:12:44;;;;;;;52.30;27.47;;;;;;;-1.42;100.00;97761.78;5100450;28;20240;-61
2024/01/12 06:15:10;;;;;;;52.80;27.73;;;;;;;-1.34;100.00;97758.94;5100474;28;20215;-57
2024/01/12 06:17:37;;;;;;;49.73;26.93;;;;;;;-1.39;100.00;97759.09;5099899;28;20204;-57
2024/01/12 06:20:04;;;;;;;51.23;27.50;;;;;;;-1.33;100.00;97761.50;5099732;28;20215;-57
2024/01/12 06:22:32;;;;;;;48.63;26.77;;;;;;;-1.34;100.00;97764.13;5100663;28;20195;-58
2024/01/12 06:24:59;;;;;;;51.03;27.00;;;;;;;-1.38;100.00;97762.53;5099952;28;20215;-58
2024/01/12 06:27:26;;;;;;;47.90;26.40;;;;;;;-1.32;100.00;97768.38;5101493;28;20319;-57
2024/01/12 06:29:53;;;;;;;50.97;27.37;;;;;;;-1.30;100.00;97765.72;5102287;28;20235;-58
2024/01/12 06:32:19;;;;;;;47.33;26.07;;;;;;;-1.38;100.00;97771.13;5101555;28;20253;-57
2024/01/12 06:34:46;;;;;;;49.80;25.63;;;;;;;-1.40;100.00;97772.09;5097445;28;20205;-57
2024/01/12 06:37:12;;;;;;;50.50;26.97;;;;;;;-1.33;100.00;97774.47;5098225;28;20337;-56
2024/01/12 06:39:40;;;;;;;48.83;26.50;;;;;;;-1.20;100.00;97768.03;5096869;28;20220;-56
2024/01/12 06:42:08;;;;;;;51.33;27.47;;;;;;;-1.24;100.00;97776.78;5100567;28;20216;-56
2024/01/12 06:44:39;;;;;;;47.33;25.50;;;;;;;-1.28;100.00;97775.19;5098748;28;20218;-57
2024/01/12 06:47:07;;;;;;;46.93;26.10;;;;;;;-1.25;100.00;97782.91;5101157;28;20295;-58
2024/01/12 06:49:35;;;;;;;50.17;27.23;;;;;;;-1.24;100.00;97784.56;5100634;28;20333;-57
2024/01/12 06:52:01;;;;;;;47.30;25.20;;;;;;;-1.23;100.00;97788.03;5119321;28;20204;-57
2024/01/12 06:54:28;;;;;;;50.40;26.33;;;;;;;-1.26;100.00;97790.72;5121278;28;20222;-58
2024/01/12 06:56:58;;;;;;;46.47;25.10;;;;;;;-1.27;100.00;97789.00;5119162;28;20232;-57
2024/01/12 06:59:24;;;;;;;49.50;26.10;;;;;;;-1.26;100.00;97783.78;5111279;28;20219;-57
2024/01/12 07:01:51;;;;;;;51.80;27.50;;;;;;;-1.21;100.00;97789.69;5109913;28;20260;-58
2024/01/12 07:04:18;;;;;;;48.00;25.67;;;;;;;-1.18;100.00;97781.81;5100987;28;20643;-57
2024/01/12 07:06:44;;;;;;;46.13;27.17;;;;;;;-1.16;100.00;97780.03;5096615;28;20324;-59
2024/01/12 07:09:12;;;;;;;52.80;27.50;;;;;;;-1.27;100.00;97776.88;5081863;28;20228;-56
2024/01/12 07:11:41;;;;;;;42.67;24.90;;;;;;;-1.13;100.00;97779.94;5081284;28;20290;-58
2024/01/12 07:14:09;;;;;;;49.83;27.20;;;;;;;-1.15;100.00;97770.50;5081293;28;20208;-58
2024/01/12 07:16:35;;;;;;;51.17;27.33;;;;;;;-1.06;100.00;97765.88;5079685;28;20288;-57
2024/01/12 07:19:02;;;;;;;52.23;26.47;;;;;;;-1.06;100.00;97767.63;5081887;28;20190;-59
2024/01/12 07:21:29;;;;;;;47.97;26.07;;;;;;;-0.94;100.00;97766.41;5080443;28;20212;-59
2024/01/12 07:23:56;;;;;;;52.83;27.33;;;;;;;-0.93;100.00;97765.53;5081385;28;20207;-56
2024/01/12 07:26:22;;;;;;;47.23;24.20;;;;;;;-0.93;100.00;97766.38;5081762;28;20224;-57
2024/01/12 07:28:49;;;;;;;45.80;24.37;;;;;;;-0.98;100.00;97773.44;5082220;28;20306;-56
2024/01/12 07:31:17;;;;;;;44.40;23.50;;;;;;;-1.05;100.00;97777.13;5080198;28;20512;-59
2024/01/12 07:33:43;;;;;;;50.00;25.83;;;;;;;-0.98;100.00;97785.56;5081268;28;20212;-58
2024/01/12 07:36:10;;;;;;;45.70;25.77;;;;;;;-0.95;100.00;97782.88;5072129;28;20279;-57
2024/01/12 07:38:37;;;;;;;45.57;24.80;;;;;;;-0.89;100.00;97783.56;5081404;28;21046;-59
2024/01/12 07:41:04;;;;;;;45.33;25.77;;;;;;;-0.86;100.00;97780.03;5081651;28;20197;-59
2024/01/12 07:43:31;;;;;;;46.53;24.87;;;;;;;-0.86;100.00;97782.63;5082552;28;20287;-57
2024/01/12 07:45:59;;;;;;;45.40;24.50;;;;;;;-0.83;100.00;97785.13;5082827;28;20217;-57
2024/01/12 07:48:26;;;;;;;46.23;26.27;;;;;;;-0.83;100.00;97787.72;5081138;28;20230;-58
2024/01/12 07:50:53;;;;;;;49.57;26.77;;;;;;;-0.82;100.00;97787.69;5080994;28;20219;-58
2024/01/12 07:53:20;;;;;;;49.17;25.77;;;;;;;-0.79;100.00;97789.34;5081375;28;20205;-59
2024/01/12 07:55:49;;;;;;;44.37;24.37;;;;;;;-0.75;100.00;97784.00;5080868;28;20286;-58
2024/01/12 07:58:18;;;;;;;45.60;26.07;;;;;;;-0.71;100.00;97792.56;5081839;28;20212;-57
2024/01/12 08:00:45;;;;;;;46.87;25.17;;;;;;;-0.74;100.00;97795.22;5083974;28;20217;-57
2024/01/12 08:03:13;;;;;;;48.60;25.70;;;;;;;-0.83;100.00;97795.50;5085823;28;20238;-59
2024/01/12 08:05:41;;;;;;;45.83;24.37;;;;;;;-0.91;100.00;97782.75;5094829;28;20248;-58
2024/01/12 08:08:07;;;;;;;43.73;23.43;;;;;;;-0.90;100.00;97781.00;5105604;28;20223;-59
2024/01/12 08:10:35;;;;;;;47.20;24.80;;;;;;;-0.84;100.00;97775.63;5105232;28;20202;-59
2024/01/12 08:13:03;;;;;;;48.70;25.63;;;;;;;-0.84;100.00;97789.47;5106233;28;20216;-57
2024/01/12 08:15:32;;;;;;;47.07;25.43;;;;;;;-0.79;100.00;97791.94;5106314;28;20303;-59
2024/01/12 08:17:58;;;;;;;48.30;25.43;;;;;;;-0.76;100.00;97787.50;5087609;28;20200;-58
2024/01/12 08:20:25;;;;;;;46.23;25.13;;;;;;;-0.84;100.00;97797.25;5105152;28;20197;-59
2024/01/12 08:22:53;;;;;;;50.93;23.70;;;;;;;-0.85;100.00;97800.72;5105543;28;20348;-57
2024/01/12 08:25:19;;;;;;;43.13;23.80;;;;;;;-0.79;100.00;97804.91;5105256;28;20206;-57
2024/01/12 08:27:46;;;;;;;44.00;23.27;;;;;;;-0.79;100.00;97810.09;5105431;28;20208;-58
2024/01/12 08:30:12;;;;;;;49.00;25.03;;;;;;;-0.77;100.00;97803.97;5104996;28;20208;-57
2024/01/12 08:32:39;;;;;;;49.20;25.73;;;;;;;-0.83;100.00;97801.56;5121189;28;20277;-58
2024/01/12 08:35:06;;;;;;;51.87;28.43;;;;;;;-0.91;100.00;97805.25;5118374;28;20229;-57
2024/01/12 08:37:35;;;;;;;51.80;27.17;;;;;;;-0.90;100.00;97802.63;5111060;28;20257;-58
2024/01/12 08:40:03;;;;;;;49.37;26.57;;;;;;;-0.99;100.00;97802.06;5107380;28;20280;-58
2024/01/12 08:42:30;;;;;;;55.10;27.47;;;;;;;-0.93;100.00;97807.06;5105025;28;20212;-56
2024/01/12 08:44:57;;;;;;;52.13;27.90;;;;;;;-0.79;100.00;97810.09;5105088;28;20211;-58
2024/01/12 08:47:23;;;;;;;48.13;26.97;;;;;;;-0.73;100.00;97805.56;5105715;27;20208;-57
2024/01/12 08:49:51;;;;;;;49.90;27.60;;;;;;;-0.83;100.00;97803.28;5105233;28;20229;-59
2024/01/12 08:52:17;;;;;;;48.53;26.80;;;;;;;-0.74;100.00;97797.81;5091101;28;20207;-57
2024/01/12 08:54:44;;;;;;;50.70;27.03;;;;;;;-0.73;100.00;97794.34;5120960;28;20308;-57
2024/01/12 08:57:12;;;;;;;52.43;28.07;;;;;;;-0.80;100.00;97791.06;5117117;28;20223;-56
2024/01/12 08:59:38;;;;;;;49.20;27.63;;;;;;;-0.71;100.00;97792.56;5105996;28;20283;-58
2024/01/12 09:02:05;;;;;;;49.47;26.90;;;;;;;-0.68;100.00;97795.91;5104925;28;20213;-57
2024/01/12 09:04:32;;;;;;;56.43;28.87;;;;;;;-0.70;100.00;97791.63;5105718;28;20347;-56
2024/01/12 09:06:58;;;;;;;52.57;26.83;;;;;;;-0.83;100.00;97801.56;5104720;28;20204;-58
2024/01/12 09:09:25;;;;;;;51.60;27.57;;;;;;;-0.85;100.00;97802.50;5104593;28;20230;-58
2024/01/12 09:11:52;;;;;;;47.90;27.50;;;;;;;-0.78;100.00;97798.84;5103972;28;20213;-58
2024/01/12 09:14:20;;;;;;;45.17;25.87;;;;;;;-0.79;100.00;97802.31;5105001;28;21062;-56
2024/01/12 09:16:46;;;;;;;50.03;28.10;;;;;;;-0.82;100.00;97805.00;5104279;28;20230;-56
2024/01/12 09:19:16;;;;;;;52.17;27.73;;;;;;;-0.78;100.00;97817.00;5104571;28;20245;-58
2024/01/12 09:21:42;;;;;;;49.40;26.63;;;;;;;-0.84;100.00;97823.22;5104567;28;20206;-57
2024/01/12 09:24:10;;;;;;;50.27;27.67;;;;;;;-0.87;100.00;97827.66;5104265;28;20291;-56
2024/01/12 09:26:37;;;;;;;51.20;27.20;;;;;;;-0.94;100.00;97829.56;5104597;28;20757;-56
2024/01/12 09:29:04;;;;;;;47.27;26.20;;;;;;;-0.94;100.00;97824.38;5104323;28;20230;-58
2024/01/12 09:31:32;;;;;;;54.47;27.13;;;;;;;-0.93;100.00;97830.44;5103854;28;20204;-57
2024/01/12 09:33:59;;;;;;;49.80;26.47;;;;;;;-0.93;100.00;97827.84;5104059;28;20212;-59
2024/01/12 09:36:27;;;;;;;51.83;26.10;;;;;;;-0.91;100.00;97828.63;5104229;28;20208;-57
2024/01/12 09:38:54;;;;;;;45.20;25.10;;;;;;;-0.84;100.00;97822.38;5103651;28;20201;-58
2024/01/12 09:41:30;;;;;;;47.33;25.77;;;;;;;-0.98;100.00;97822.78;5084737;28;20205;-57
2024/01/12 09:43:58;;;;;;;49.10;24.47;;;;;;;-0.88;100.00;97832.00;5104066;28;20286;-59
2024/01/12 09:46:28;;;;;;;47.57;26.43;;;;;;;-0.88;100.00;97825.94;5105596;27;20293;-55
2024/01/12 09:48:56;;;;;;;50.00;26.90;;;;;;;-0.95;100.00;97827.00;5108352;28;20562;-56
2024/01/12 09:51:26;;;;;;;48.23;25.70;;;;;;;-0.89;100.00;97834.66;5089733;28;20235;-56
2024/01/12 09:53:55;;;;;;;50.67;26.60;;;;;;;-0.82;100.00;97831.84;5107733;28;20300;-55
2024/01/12 09:56:21;;;;;;;50.30;26.67;;;;;;;-0.68;100.00;97821.03;5109777;28;20198;-56
2024/01/12 09:58:50;;;;;;;47.70;25.63;;;;;;;-0.75;100.00;97824.72;5111270;28;20298;-58
2024/01/12 10:01:17;;;;;;;51.47;25.37;;;;;;;-0.73;100.00;97820.31;5108431;28;20214;-57
2024/01/12 10:03:44;;;;;;;49.67;26.37;;;;;;;-0.78;100.00;97827.41;5103356;28;20301;-56
2024/01/12 10:06:12;;;;;;;47.70;24.93;;;;;;;-0.73;100.00;97822.91;5097297;28;20256;-56
2024/01/12 10:08:40;;;;;;;44.20;23.97;;;;;;;-0.68;100.00;97829.69;5085988;28;20228;-56
2024/01/12 10:11:06;;;;;;;45.80;25.37;;;;;;;-0.65;100.00;97828.72;5085927;28;20213;-55
2024/01/12 10:13:34;;;;;;;48.77;25.43;;;;;;;-0.61;100.00;97840.72;5086212;28;20211;-55
2024/01/12 10:16:02;;;;;;;46.60;25.43;;;;;;;-0.63;100.00;97832.13;5074966;28;20312;-56
2024/01/12 10:18:29;;;;;;;50.17;24.60;;;;;;;-0.65;100.00;97831.31;5081852;28;20211;-55
2024/01/12 10:20:58;;;;;;;49.10;24.83;;;;;;;-0.55;100.00;97831.00;5098406;28;20195;-57
2024/01/12 10:23:26;;;;;;;45.57;24.53;;;;;;;-0.60;100.00;97825.06;5094580;28;20235;-56
2024/01/12 10:25:57;;;;;;;43.53;24.47;;;;;;;-0.51;100.00;97826.56;5094569;28;20553;-57
2024/01/12 10:28:24;;;;;;;44.73;24.50;;;;;;;-0.46;100.00;97823.84;5097562;28;20516;-57
2024/01/12 10:30:50;;;;;;;42.03;24.90;;;;;;;-0.55;100.00;97818.00;5096747;28;20204;-56
2024/01/12 10:33:18;;;;;;;46.13;24.13;;;;;;;-0.51;100.00;97827.41;5097913;28;20220;-56
2024/01/12 10:35:48;;;;;;;43.33;22.37;;;;;;;-0.46;100.00;97827.25;5096828;28;20201;-56
2024/01/12 10:38:15;;;;;;;40.40;22.40;;;;;;;-0.50;100.00;97826.50;5096860;28;20708;-57
2024/01/12 10:40:45;;;;;;;41.37;24.57;;;;;;;-0.45;100.00;97815.97;5094721;28;20275;-57
2024/01/12 10:43:13;;;;;;;43.00;22.50;;;;;;;-0.34;100.00;97813.88;5098067;28;20529;-57
2024/01/12 10:45:42;;;;;;;43.93;24.07;;;;;;;-0.22;100.00;97813.50;5094642;28;20655;-57
2024/01/12 10:48:10;;;;;;;42.80;23.00;;;;;;;-0.28;100.00;97816.28;5097043;28;20258;-57
2024/01/12 10:50:41;;;;;;;40.33;20.23;;;;;;;-0.25;100.00;97813.59;5098524;28;20224;-57
2024/01/12 10:53:12;;;;;;;36.07;19.40;;;;;;;-0.12;100.00;97814.06;5098501;28;20223;-60
2024/01/12 10:55:46;;;;;;;35.77;20.17;;;;;;;-0.04;100.00;97815.50;5096926;28;20255;-58
2024/01/12 10:58:14;;;;;;;38.93;20.73;;;;;;;0.06;100.00;97812.59;5095953;28;20211;-56
2024/01/12 11:00:42;;;;;;;36.37;19.20;;;;;;;0.06;100.00;97807.41;5098108;28;20592;-57
2024/01/12 11:03:10;;;;;;;37.80;20.20;;;;;;;0.02;100.00;97811.00;5099673;28;20240;-57
2024/01/12 11:05:37;;;;;;;35.40;20.43;;;;;;;0.10;100.00;97801.22;5092130;28;20239;-56
2024/01/12 11:08:09;;;;;;;38.73;21.20;;;;;;;0.00;100.00;97798.91;5082698;28;20746;-57
2024/01/12 11:10:37;;;;;;;38.40;20.77;;;;;;;0.16;100.00;97790.59;5081738;28;20227;-57